sensor_id;sensor_type;location;lat;lon;timestamp;pressure;altitude;pressure_sealevel;temperature;humidity
32324;BME280;25666;44.350;9.222;2023-05-01T00:01:17;101287.66;;;16.92;100.00
32324;BME280;25666;44.350;9.222;2023-05-01T00:03:43;101286.06;;;16.91;100.00
32324;BME280;25666;44.350;9.222;2023-05-01T00:06:09;101269.59;;;16.93;100.00
32324;BME280;25666;44.350;9.222;2023-05-01T00:08:35;101279.22;;;16.92;100.00
32324;BME280;25666;44.350;9.222;2023-05-01T00:11:04;101275.97;;;16.90;100.00
32324;BME280;25666;44.350;9.222;2023-05-01T00:13:31;101278.38;;;16.88;100.00
32324;BME280;25666;44.350;9.222;2023-05-01T00:15:56;101269.50;;;16.86;100.00
32324;BME280;25666;44.350;9.222;2023-05-01T00:18:23;101271.00;;;16.80;100.00
32324;BME280;25666;44.350;9.222;2023-05-01T00:20:48;101268.72;;;16.59;100.00
32324;BME280;25666;44.350;9.222;2023-05-01T00:23:14;101272.19;;;16.52;100.00
32324;BME280;25666;44.350;9.222;2023-05-01T00:25:40;101266.66;;;16.56;100.00
32324;BME280;25666;44.350;9.222;2023-05-01T00:28:06;101277.50;;;16.57;100.00
32324;BME280;25666;44.350;9.222;2023-05-01T00:30:32;101276.38;;;16.62;100.00
32324;BME280;25666;44.350;9.222;2023-05-01T00:32:59;101272.81;;;16.65;100.00
32324;BME280;25666;44.350;9.222;2023-05-01T00:35:26;101271.63;;;16.66;100.00
32324;BME280;25666;44.350;9.222;2023-05-01T00:37:52;101278.84;;;16.67;100.00
32324;BME280;25666;44.350;9.222;2023-05-01T00:40:18;101276.50;;;16.69;100.00
32324;BME280;25666;44.350;9.222;2023-05-01T00:42:44;101260.88;;;16.72;100.00
32324;BME280;25666;44.350;9.222;2023-05-01T00:45:10;101272.81;;;16.65;100.00
32324;BME280;25666;44.350;9.222;2023-05-01T00:47:36;101266.78;;;16.63;100.00
32324;BME280;25666;44.350;9.222;2023-05-01T00:50:03;101262.00;;;16.67;100.00
32324;BME280;25666;44.350;9.222;2023-05-01T00:52:30;101257.19;;;16.68;100.00
32324;BME280;25666;44.350;9.222;2023-05-01T00:54:56;101260.38;;;16.66;100.00
32324;BME280;25666;44.350;9.222;2023-05-01T00:57:22;101263.56;;;16.65;100.00
32324;BME280;25666;44.350;9.222;2023-05-01T00:59:47;101257.88;;;16.61;100.00
32324;BME280;25666;44.350;9.222;2023-05-01T01:02:14;101260.81;;;16.45;100.00
32324;BME280;25666;44.350;9.222;2023-05-01T01:04:41;101255.47;;;16.59;100.00
32324;BME280;25666;44.350;9.222;2023-05-01T01:07:22;101249.91;;;16.63;100.00
32324;BME280;25666;44.350;9.222;2023-05-01T01:10:14;101253.28;;;16.49;100.00
32324;BME280;25666;44.350;9.222;2023-05-01T01:12:53;101256.22;;;16.34;100.00
32324;BME280;25666;44.350;9.222;2023-05-01T01:15:29;101253.09;;;16.39;100.00
32324;BME280;25666;44.350;9.222;2023-05-01T01:26:26;101244.19;;;16.33;100.00
32324;BME280;25666;44.350;9.222;2023-05-01T01:32:07;101246.13;;;16.29;100.00
32324;BME280;25666;44.350;9.222;2023-05-01T01:34:35;101240.34;;;16.19;100.00
32324;BME280;25666;44.350;9.222;2023-05-01T01:37:10;101244.13;;;16.30;100.00
32324;BME280;25666;44.350;9.222;2023-05-01T01:42:17;101237.16;;;16.20;100.00
32324;BME280;25666;44.350;9.222;2023-05-01T01:44:51;101236.72;;;16.18;100.00
32324;BME280;25666;44.350;9.222;2023-05-01T01:47:21;101231.22;;;16.25;100.00
32324;BME280;25666;44.350;9.222;2023-05-01T01:49:50;101224.91;;;16.32;100.00
32324;BME280;25666;44.350;9.222;2023-05-01T01:52:17;101223.22;;;16.27;100.00
32324;BME280;25666;44.350;9.222;2023-05-01T01:54:50;101220.63;;;16.15;100.00
32324;BME280;25666;44.350;9.222;2023-05-01T01:57:18;101221.91;;;16.21;100.00
32324;BME280;25666;44.350;9.222;2023-05-01T01:59:46;101225.22;;;16.27;100.00
32324;BME280;25666;44.350;9.222;2023-05-01T02:02:14;101222.34;;;16.23;100.00
32324;BME280;25666;44.350;9.222;2023-05-01T02:04:41;101223.09;;;16.20;100.00
32324;BME280;25666;44.350;9.222;2023-05-01T02:07:10;101216.19;;;16.14;100.00
32324;BME280;25666;44.350;9.222;2023-05-01T02:09:36;101218.69;;;16.19;100.00
32324;BME280;25666;44.350;9.222;2023-05-01T02:12:06;101216.56;;;16.13;100.00
32324;BME280;25666;44.350;9.222;2023-05-01T02:14:32;101220.97;;;16.14;100.00
32324;BME280;25666;44.350;9.222;2023-05-01T02:16:59;101216.19;;;16.14;100.00
32324;BME280;25666;44.350;9.222;2023-05-01T02:19:26;101213.75;;;16.13;100.00
32324;BME280;25666;44.350;9.222;2023-05-01T02:21:54;101214.00;;;16.04;100.00
32324;BME280;25666;44.350;9.222;2023-05-01T02:24:23;101204.94;;;16.14;100.00
32324;BME280;25666;44.350;9.222;2023-05-01T02:26:52;101204.94;;;16.14;100.00
32324;BME280;25666;44.350;9.222;2023-05-01T02:29:20;101205.56;;;16.04;100.00
32324;BME280;25666;44.350;9.222;2023-05-01T02:31:45;101203.03;;;15.95;100.00
32324;BME280;25666;44.350;9.222;2023-05-01T02:34:11;101202.63;;;15.93;100.00
32324;BME280;25666;44.350;9.222;2023-05-01T02:36:36;101210.16;;;15.89;100.00
32324;BME280;25666;44.350;9.222;2023-05-01T02:39:02;101201.47;;;15.98;100.00
32324;BME280;25666;44.350;9.222;2023-05-01T02:41:29;101197.81;;;15.94;100.00
32324;BME280;25666;44.350;9.222;2023-05-01T02:44:00;101199.31;;;15.88;100.00
32324;BME280;25666;44.350;9.222;2023-05-01T02:46:30;101195.38;;;15.92;100.00
32324;BME280;25666;44.350;9.222;2023-05-01T02:48:59;101197.13;;;15.78;100.00
32324;BME280;25666;44.350;9.222;2023-05-01T02:51:26;101193.63;;;15.84;100.00
32324;BME280;25666;44.350;9.222;2023-05-01T02:53:53;101187.44;;;15.98;100.00
32324;BME280;25666;44.350;9.222;2023-05-01T02:56:21;101176.19;;;15.98;100.00
32324;BME280;25666;44.350;9.222;2023-05-01T02:58:47;101175.97;;;15.84;100.00
32324;BME280;25666;44.350;9.222;2023-05-01T03:01:13;101180.09;;;15.90;100.00
32324;BME280;25666;44.350;9.222;2023-05-01T03:03:39;101173.25;;;15.87;100.00
32324;BME280;25666;44.350;9.222;2023-05-01T03:06:04;101183.25;;;15.88;100.00
32324;BME280;25666;44.350;9.222;2023-05-01T03:08:30;101170.59;;;15.98;100.00
32324;BME280;25666;44.350;9.222;2023-05-01T03:10:55;101176.84;;;15.88;100.00
32324;BME280;25666;44.350;9.222;2023-05-01T03:13:21;101176.13;;;15.94;100.00
32324;BME280;25666;44.350;9.222;2023-05-01T03:15:47;101171.47;;;16.02;100.00
32324;BME280;25666;44.350;9.222;2023-05-01T03:18:12;101170.16;;;15.96;100.00
32324;BME280;25666;44.350;9.222;2023-05-01T03:20:38;101164.53;;;15.96;100.00
32324;BME280;25666;44.350;9.222;2023-05-01T03:23:03;101162.84;;;15.91;100.00
32324;BME280;25666;44.350;9.222;2023-05-01T03:25:31;101175.59;;;15.85;100.00
32324;BME280;25666;44.350;9.222;2023-05-01T03:27:56;101169.75;;;15.94;100.00
32324;BME280;25666;44.350;9.222;2023-05-01T03:30:22;101176.13;;;15.94;100.00
32324;BME280;25666;44.350;9.222;2023-05-01T03:32:49;101174.22;;;15.98;100.00
32324;BME280;25666;44.350;9.222;2023-05-01T03:35:21;101166.19;;;15.97;100.00
32324;BME280;25666;44.350;9.222;2023-05-01T03:37:47;101170.66;;;16.01;100.00
32324;BME280;25666;44.350;9.222;2023-05-01T03:40:21;101169.34;;;15.95;100.00
32324;BME280;25666;44.350;9.222;2023-05-01T03:42:53;101167.97;;;15.86;100.00
32324;BME280;25666;44.350;9.222;2023-05-01T03:45:21;101170.63;;;15.75;100.00
32324;BME280;25666;44.350;9.222;2023-05-01T03:47:47;101167.91;;;15.82;100.00
32324;BME280;25666;44.350;9.222;2023-05-01T03:50:13;101168.94;;;15.71;100.00
32324;BME280;25666;44.350;9.222;2023-05-01T03:52:40;101170.31;;;15.58;100.00
32324;BME280;25666;44.350;9.222;2023-05-01T03:55:06;101161.66;;;15.66;100.00
32324;BME280;25666;44.350;9.222;2023-05-01T03:57:39;101164.13;;;15.71;100.00
32324;BME280;25666;44.350;9.222;2023-05-01T04:00:06;101165.25;;;15.89;100.00
32324;BME280;25666;44.350;9.222;2023-05-01T04:02:40;101164.81;;;15.87;100.00
32324;BME280;25666;44.350;9.222;2023-05-01T04:05:07;101161.25;;;15.90;100.00
32324;BME280;25666;44.350;9.222;2023-05-01T04:07:32;101163.06;;;15.79;100.00
32324;BME280;25666;44.350;9.222;2023-05-01T04:09:58;101166.63;;;15.76;100.00
32324;BME280;25666;44.350;9.222;2023-05-01T04:12:24;101160.31;;;15.83;100.00
32324;BME280;25666;44.350;9.222;2023-05-01T04:14:49;101162.84;;;15.91;100.00
32324;BME280;25666;44.350;9.222;2023-05-01T04:17:15;101156.28;;;15.58;100.00
32324;BME280;25666;44.350;9.222;2023-05-01T04:19:41;101160.91;;;15.69;100.00
32324;BME280;25666;44.350;9.222;2023-05-01T04:22:06;101156.53;;;15.72;100.00
32324;BME280;25666;44.350;9.222;2023-05-01T04:24:33;101156.41;;;15.87;100.00
32324;BME280;25666;44.350;9.222;2023-05-01T04:26:58;101153.28;;;15.70;100.00
32324;BME280;25666;44.350;9.222;2023-05-01T04:29:24;101159.34;;;15.72;100.00
32324;BME280;25666;44.350;9.222;2023-05-01T04:31:50;101156.63;;;15.79;100.00
32324;BME280;25666;44.350;9.222;2023-05-01T04:34:15;101153.78;;;15.75;100.00
32324;BME280;25666;44.350;9.222;2023-05-01T04:36:41;101155.78;;;15.75;100.00
32324;BME280;25666;44.350;9.222;2023-05-01T04:39:07;101162.31;;;15.82;100.00
32324;BME280;25666;44.350;9.222;2023-05-01T04:41:32;101164.31;;;15.82;100.00
32324;BME280;25666;44.350;9.222;2023-05-01T04:43:58;101166.31;;;15.81;100.00
32324;BME280;25666;44.350;9.222;2023-05-01T04:46:23;101157.50;;;15.83;100.00
32324;BME280;25666;44.350;9.222;2023-05-01T04:48:49;101157.91;;;15.81;100.00
32324;BME280;25666;44.350;9.222;2023-05-01T04:51:14;101159.75;;;15.96;100.00
32324;BME280;25666;44.350;9.222;2023-05-01T04:53:40;101161.88;;;15.80;100.00
32324;BME280;25666;44.350;9.222;2023-05-01T04:56:15;101161.06;;;15.80;100.00
32324;BME280;25666;44.350;9.222;2023-05-01T04:58:40;101168.59;;;15.76;100.00
32324;BME280;25666;44.350;9.222;2023-05-01T05:01:10;101167.81;;;15.75;100.00
32324;BME280;25666;44.350;9.222;2023-05-01T05:03:36;101169.88;;;15.78;100.00
32324;BME280;25666;44.350;9.222;2023-05-01T05:06:01;101171.59;;;15.86;100.00
32324;BME280;25666;44.350;9.222;2023-05-01T05:08:28;101178.59;;;15.73;100.00
32324;BME280;25666;44.350;9.222;2023-05-01T05:10:59;101178.22;;;15.75;100.00
32324;BME280;25666;44.350;9.222;2023-05-01T05:13:31;101179.84;;;15.76;100.00
32324;BME280;25666;44.350;9.222;2023-05-01T05:16:03;101177.16;;;15.83;100.00
32324;BME280;25666;44.350;9.222;2023-05-01T05:18:29;101180.03;;;15.86;100.00
32324;BME280;25666;44.350;9.222;2023-05-01T05:20:55;101182.56;;;15.95;100.00
32324;BME280;25666;44.350;9.222;2023-05-01T05:23:21;101177.97;;;15.83;100.00
32324;BME280;25666;44.350;9.222;2023-05-01T05:25:46;101179.28;;;15.89;100.00
32324;BME280;25666;44.350;9.222;2023-05-01T05:28:12;101181.31;;;15.66;100.00
32324;BME280;25666;44.350;9.222;2023-05-01T05:30:38;101181.88;;;15.79;100.00
32324;BME280;25666;44.350;9.222;2023-05-01T05:33:06;101183.25;;;15.88;100.00
32324;BME280;25666;44.350;9.222;2023-05-01T05:35:33;101179.75;;;15.95;100.00
32324;BME280;25666;44.350;9.222;2023-05-01T05:37:59;101179.69;;;15.91;100.00
32324;BME280;25666;44.350;9.222;2023-05-01T05:40:25;101180.84;;;15.87;100.00
32324;BME280;25666;44.350;9.222;2023-05-01T05:42:53;101179.41;;;15.96;100.00
32324;BME280;25666;44.350;9.222;2023-05-01T05:45:20;101192.84;;;16.10;100.00
32324;BME280;25666;44.350;9.222;2023-05-01T05:47:47;101182.19;;;16.19;100.00
32324;BME280;25666;44.350;9.222;2023-05-01T05:50:13;101175.47;;;16.27;100.00
32324;BME280;25666;44.350;9.222;2023-05-01T05:52:39;101164.81;;;16.40;100.00
32324;BME280;25666;44.350;9.222;2023-05-01T05:55:05;101158.28;;;16.58;100.00
32324;BME280;25666;44.350;9.222;2023-05-01T05:57:31;101169.47;;;16.55;100.00
32324;BME280;25666;44.350;9.222;2023-05-01T05:59:58;101174.84;;;16.67;100.00
32324;BME280;25666;44.350;9.222;2023-05-01T06:02:25;101162.47;;;16.72;100.00
32324;BME280;25666;44.350;9.222;2023-05-01T06:04:51;101163.34;;;16.76;100.00
32324;BME280;25666;44.350;9.222;2023-05-01T06:07:20;101158.59;;;16.83;100.00
32324;BME280;25666;44.350;9.222;2023-05-01T06:09:46;101152.16;;;16.83;100.00
32324;BME280;25666;44.350;9.222;2023-05-01T06:12:11;101159.47;;;16.87;100.00
32324;BME280;25666;44.350;9.222;2023-05-01T06:14:38;101159.13;;;16.92;100.00
32324;BME280;25666;44.350;9.222;2023-05-01T06:17:05;101161.16;;;16.95;100.00
32324;BME280;25666;44.350;9.222;2023-05-01T06:19:31;101159.25;;;17.03;100.00
32324;BME280;25666;44.350;9.222;2023-05-01T06:22:06;101166.09;;;17.05;100.00
32324;BME280;25666;44.350;9.222;2023-05-01T06:24:36;101168.56;;;17.10;100.00
32324;BME280;25666;44.350;9.222;2023-05-01T06:27:04;101168.25;;;17.16;100.00
32324;BME280;25666;44.350;9.222;2023-05-01T06:29:30;101160.97;;;17.14;100.00
32324;BME280;25666;44.350;9.222;2023-05-01T06:31:57;101166.16;;;17.09;100.00
32324;BME280;25666;44.350;9.222;2023-05-01T06:34:22;101166.16;;;17.09;100.00
32324;BME280;25666;44.350;9.222;2023-05-01T06:36:51;101164.53;;;17.08;100.00
32324;BME280;25666;44.350;9.222;2023-05-01T06:39:17;101169.72;;;17.06;100.00
32324;BME280;25666;44.350;9.222;2023-05-01T06:41:45;101165.38;;;17.12;100.00
32324;BME280;25666;44.350;9.222;2023-05-01T06:44:16;101168.59;;;17.14;100.00
32324;BME280;25666;44.350;9.222;2023-05-01T06:46:42;101174.19;;;17.10;100.00
32324;BME280;25666;44.350;9.222;2023-05-01T06:49:08;101177.84;;;17.14;100.00
32324;BME280;25666;44.350;9.222;2023-05-01T06:51:33;101170.97;;;17.08;100.00
32324;BME280;25666;44.350;9.222;2023-05-01T06:53:59;101185.06;;;17.12;100.00
32324;BME280;25666;44.350;9.222;2023-05-01T06:56:24;101182.69;;;17.14;100.00
32324;BME280;25666;44.350;9.222;2023-05-01T06:58:51;101190.03;;;17.22;100.00
32324;BME280;25666;44.350;9.222;2023-05-01T07:01:16;101197.25;;;17.23;100.00
32324;BME280;25666;44.350;9.222;2023-05-01T07:03:42;101196.06;;;17.24;100.00
32324;BME280;25666;44.350;9.222;2023-05-01T07:06:07;101199.19;;;17.16;100.00
32324;BME280;25666;44.350;9.222;2023-05-01T07:08:33;101213.56;;;17.10;100.00
32324;BME280;25666;44.350;9.222;2023-05-01T07:10:58;101210.63;;;17.00;100.00
32324;BME280;25666;44.350;9.222;2023-05-01T07:13:25;101216.38;;;17.07;100.00
32324;BME280;25666;44.350;9.222;2023-05-01T07:15:51;101217.16;;;17.07;100.00
32324;BME280;25666;44.350;9.222;2023-05-01T07:18:17;101223.13;;;17.02;100.00
32324;BME280;25666;44.350;9.222;2023-05-01T07:20:43;101227.06;;;16.94;100.00
32324;BME280;25666;44.350;9.222;2023-05-01T07:23:09;101226.94;;;16.87;100.00
32324;BME280;25666;44.350;9.222;2023-05-01T07:25:35;101241.66;;;16.77;100.00
32324;BME280;25666;44.350;9.222;2023-05-01T07:28:05;101238.38;;;16.72;100.00
32324;BME280;25666;44.350;9.222;2023-05-01T07:30:32;101245.03;;;16.60;100.00
32324;BME280;25666;44.350;9.222;2023-05-01T07:32:58;101243.84;;;16.61;100.00
32324;BME280;25666;44.350;9.222;2023-05-01T07:35:23;101241.03;;;16.61;100.00
32324;BME280;25666;44.350;9.222;2023-05-01T07:37:49;101245.34;;;16.55;100.00
32324;BME280;25666;44.350;9.222;2023-05-01T07:40:19;101241.59;;;16.21;100.00
32324;BME280;25666;44.350;9.222;2023-05-01T07:42:45;101243.06;;;16.38;100.00
32324;BME280;25666;44.350;9.222;2023-05-01T07:45:10;101240.06;;;16.27;100.00
32324;BME280;25666;44.350;9.222;2023-05-01T07:47:36;101246.56;;;16.31;100.00
32324;BME280;25666;44.350;9.222;2023-05-01T07:50:02;101244.66;;;16.39;100.00
32324;BME280;25666;44.350;9.222;2023-05-01T07:52:28;101235.94;;;16.44;100.00
32324;BME280;25666;44.350;9.222;2023-05-01T07:54:53;101236.75;;;16.44;100.00
32324;BME280;25666;44.350;9.222;2023-05-01T07:57:19;101228.47;;;16.29;100.00
32324;BME280;25666;44.350;9.222;2023-05-01T07:59:45;101232.41;;;16.50;100.00
32324;BME280;25666;44.350;9.222;2023-05-01T08:02:10;101238.06;;;16.54;100.00
32324;BME280;25666;44.350;9.222;2023-05-01T08:04:37;101247.25;;;16.51;100.00
32324;BME280;25666;44.350;9.222;2023-05-01T08:07:03;101246.28;;;16.63;100.00
32324;BME280;25666;44.350;9.222;2023-05-01T08:09:29;101251.97;;;16.66;100.00
32324;BME280;25666;44.350;9.222;2023-05-01T08:11:55;101254.44;;;16.48;100.00
32324;BME280;25666;44.350;9.222;2023-05-01T08:14:20;101257.75;;;16.54;100.00
32324;BME280;25666;44.350;9.222;2023-05-01T08:16:46;101267.66;;;16.71;100.00
32324;BME280;25666;44.350;9.222;2023-05-01T08:19:11;101255.88;;;16.88;100.00
32324;BME280;25666;44.350;9.222;2023-05-01T08:21:37;101267.31;;;17.02;100.00
32324;BME280;25666;44.350;9.222;2023-05-01T08:24:02;101262.66;;;17.17;100.00
32324;BME280;25666;44.350;9.222;2023-05-01T08:26:28;101259.53;;;17.22;100.00
32324;BME280;25666;44.350;9.222;2023-05-01T08:28:53;101268.44;;;17.27;100.00
32324;BME280;25666;44.350;9.222;2023-05-01T08:31:19;101261.94;;;17.23;100.00
32324;BME280;25666;44.350;9.222;2023-05-01T08:33:45;101271.97;;;17.21;100.00
32324;BME280;25666;44.350;9.222;2023-05-01T08:36:10;101276.41;;;17.22;100.00
32324;BME280;25666;44.350;9.222;2023-05-01T08:38:36;101269.22;;;16.94;100.00
32324;BME280;25666;44.350;9.222;2023-05-01T08:41:02;101265.00;;;17.11;100.00
32324;BME280;25666;44.350;9.222;2023-05-01T08:43:29;101275.44;;;17.07;100.00
32324;BME280;25666;44.350;9.222;2023-05-01T08:45:58;101282.66;;;17.08;100.00
32324;BME280;25666;44.350;9.222;2023-05-01T08:48:26;101276.84;;;17.24;100.00
32324;BME280;25666;44.350;9.222;2023-05-01T08:50:54;101266.03;;;17.26;100.00
32324;BME280;25666;44.350;9.222;2023-05-01T08:53:21;101272.31;;;17.49;100.00
32324;BME280;25666;44.350;9.222;2023-05-01T08:55:48;101273.25;;;17.56;100.00
32324;BME280;25666;44.350;9.222;2023-05-01T08:58:17;101275.25;;;17.56;100.00
32324;BME280;25666;44.350;9.222;2023-05-01T09:00:43;101272.63;;;17.74;100.00
32324;BME280;25666;44.350;9.222;2023-05-01T09:03:11;101277.03;;;17.71;100.00
32324;BME280;25666;44.350;9.222;2023-05-01T09:05:37;101274.25;;;17.75;100.00
32324;BME280;25666;44.350;9.222;2023-05-01T09:08:03;101276.56;;;17.65;100.00
32324;BME280;25666;44.350;9.222;2023-05-01T09:10:29;101273.84;;;17.76;100.00
32324;BME280;25666;44.350;9.222;2023-05-01T09:12:56;101278.75;;;17.79;100.00
32324;BME280;25666;44.350;9.222;2023-05-01T09:15:27;101266.72;;;17.86;100.00
32324;BME280;25666;44.350;9.222;2023-05-01T09:17:55;101267.59;;;17.93;100.00
32324;BME280;25666;44.350;9.222;2023-05-01T09:20:21;101276.91;;;17.97;100.00
32324;BME280;25666;44.350;9.222;2023-05-01T09:22:48;101275.47;;;17.77;100.00
32324;BME280;25666;44.350;9.222;2023-05-01T09:25:13;101263.31;;;17.66;100.00
32324;BME280;25666;44.350;9.222;2023-05-01T09:27:39;101271.19;;;17.90;100.00
32324;BME280;25666;44.350;9.222;2023-05-01T09:30:04;101277.19;;;17.85;100.00
32324;BME280;25666;44.350;9.222;2023-05-01T09:32:31;101273.31;;;18.00;100.00
32324;BME280;25666;44.350;9.222;2023-05-01T09:35:13;101272.25;;;18.15;100.00
32324;BME280;25666;44.350;9.222;2023-05-01T09:37:40;101258.97;;;18.16;100.00
32324;BME280;25666;44.350;9.222;2023-05-01T09:40:10;101259.09;;;18.34;100.00
32324;BME280;25666;44.350;9.222;2023-05-01T09:42:50;101264.41;;;18.42;100.00
32324;BME280;25666;44.350;9.222;2023-05-01T09:45:16;101249.38;;;18.28;100.00
32324;BME280;25666;44.350;9.222;2023-05-01T09:47:44;101244.78;;;18.53;100.00
32324;BME280;25666;44.350;9.222;2023-05-01T09:50:30;101253.94;;;18.43;100.00
32324;BME280;25666;44.350;9.222;2023-05-01T09:52:56;101243.66;;;18.68;100.00
32324;BME280;25666;44.350;9.222;2023-05-01T09:55:22;101252.59;;;18.77;100.00
32324;BME280;25666;44.350;9.222;2023-05-01T09:57:50;101241.69;;;18.72;100.00
32324;BME280;25666;44.350;9.222;2023-05-01T10:00:16;101245.69;;;18.71;100.00
32324;BME280;25666;44.350;9.222;2023-05-01T10:02:46;101236.72;;;18.55;100.00
32324;BME280;25666;44.350;9.222;2023-05-01T10:05:12;101241.09;;;18.49;100.00
32324;BME280;25666;44.350;9.222;2023-05-01T10:07:38;101243.19;;;18.55;100.00
32324;BME280;25666;44.350;9.222;2023-05-01T10:10:17;101240.84;;;18.68;100.00
32324;BME280;25666;44.350;9.222;2023-05-01T10:12:43;101242.13;;;18.81;100.00
32324;BME280;25666;44.350;9.222;2023-05-01T10:15:09;101241.41;;;18.98;100.00
32324;BME280;25666;44.350;9.222;2023-05-01T10:17:35;101241.75;;;18.86;100.00
32324;BME280;25666;44.350;9.222;2023-05-01T10:20:00;101234.56;;;18.96;100.00
32324;BME280;25666;44.350;9.222;2023-05-01T10:22:26;101236.44;;;18.74;100.00
32324;BME280;25666;44.350;9.222;2023-05-01T10:24:52;101230.50;;;18.90;100.00
32324;BME280;25666;44.350;9.222;2023-05-01T10:27:18;101233.41;;;19.04;100.00
32324;BME280;25666;44.350;9.222;2023-05-01T10:29:47;101232.44;;;18.75;100.00
32324;BME280;25666;44.350;9.222;2023-05-01T10:32:16;101238.53;;;18.84;100.00
32324;BME280;25666;44.350;9.222;2023-05-01T10:34:46;101235.31;;;18.86;100.00
32324;BME280;25666;44.350;9.222;2023-05-01T10:37:19;101225.25;;;18.88;100.00
32324;BME280;25666;44.350;9.222;2023-05-01T10:39:47;101225.28;;;18.99;100.00
32324;BME280;25666;44.350;9.222;2023-05-01T10:42:13;101224.03;;;18.86;100.00
32324;BME280;25666;44.350;9.222;2023-05-01T10:44:39;101221.19;;;18.82;100.00
32324;BME280;25666;44.350;9.222;2023-05-01T10:50:11;101220.88;;;18.98;100.00
32324;BME280;25666;44.350;9.222;2023-05-01T10:55:39;101217.50;;;18.71;100.00
32324;BME280;25666;44.350;9.222;2023-05-01T10:58:12;101216.03;;;18.95;100.00
32324;BME280;25666;44.350;9.222;2023-05-01T11:00:38;101220.75;;;18.73;100.00
32324;BME280;25666;44.350;9.222;2023-05-01T11:14:06;101204.84;;;19.30;100.00
32324;BME280;25666;44.350;9.222;2023-05-01T11:19:42;101204.19;;;19.68;100.00
32324;BME280;25666;44.350;9.222;2023-05-01T11:21:56;101205.00;;;19.76;100.00
32324;BME280;25666;44.350;9.222;2023-05-01T11:24:30;101187.25;;;19.83;100.00
32324;BME280;25666;44.350;9.222;2023-05-01T11:26:57;101184.41;;;20.21;100.00
32324;BME280;25666;44.350;9.222;2023-05-01T11:29:30;101182.00;;;20.16;100.00
32324;BME280;25666;44.350;9.222;2023-05-01T11:31:58;101177.53;;;20.40;100.00
32324;BME280;25666;44.350;9.222;2023-05-01T11:34:24;101175.91;;;20.43;100.00
32324;BME280;25666;44.350;9.222;2023-05-01T11:36:51;101172.72;;;20.37;100.00
32324;BME280;25666;44.350;9.222;2023-05-01T11:39:18;101171.06;;;20.50;100.00
32324;BME280;25666;44.350;9.222;2023-05-01T11:41:44;101169.88;;;20.51;100.00
32324;BME280;25666;44.350;9.222;2023-05-01T11:44:17;101157.22;;;20.84;100.00
32324;BME280;25666;44.350;9.222;2023-05-01T11:46:42;101162.84;;;20.95;100.00
32324;BME280;25666;44.350;9.222;2023-05-01T11:49:08;101160.94;;;20.63;100.00
32324;BME280;25666;44.350;9.222;2023-05-01T11:51:34;101157.09;;;21.05;100.00
32324;BME280;25666;44.350;9.222;2023-05-01T11:54:01;101162.75;;;21.19;100.00
32324;BME280;25666;44.350;9.222;2023-05-01T11:56:28;101167.72;;;20.83;100.00
32324;BME280;25666;44.350;9.222;2023-05-01T11:58:55;101163.19;;;21.14;100.00
32324;BME280;25666;44.350;9.222;2023-05-01T12:01:38;101160.03;;;20.88;100.00
32324;BME280;25666;44.350;9.222;2023-05-01T12:04:05;101161.16;;;21.08;100.00
32324;BME280;25666;44.350;9.222;2023-05-01T12:06:41;101160.06;;;20.77;100.00
32324;BME280;25666;44.350;9.222;2023-05-01T12:09:15;101163.66;;;20.92;100.00
32324;BME280;25666;44.350;9.222;2023-05-01T12:11:41;101163.47;;;21.30;100.00
32324;BME280;25666;44.350;9.222;2023-05-01T12:14:08;101163.56;;;21.16;100.00
32324;BME280;25666;44.350;9.222;2023-05-01T12:16:35;101157.53;;;21.07;100.00
32324;BME280;25666;44.350;9.222;2023-05-01T12:19:01;101161.59;;;20.96;100.00
32324;BME280;25666;44.350;9.222;2023-05-01T12:21:27;101162.81;;;21.02;100.00
32324;BME280;25666;44.350;9.222;2023-05-01T12:23:53;101153.78;;;21.28;100.00
32324;BME280;25666;44.350;9.222;2023-05-01T12:26:24;101159.88;;;21.26;100.00
32324;BME280;25666;44.350;9.222;2023-05-01T12:29:00;101149.59;;;21.54;100.00
32324;BME280;25666;44.350;9.222;2023-05-01T12:31:26;101153.75;;;21.39;100.00
32324;BME280;25666;44.350;9.222;2023-05-01T12:33:55;101157.31;;;21.46;100.00
32324;BME280;25666;44.350;9.222;2023-05-01T12:36:22;101152.09;;;21.41;100.00
32324;BME280;25666;44.350;9.222;2023-05-01T12:39:08;101147.59;;;21.47;100.00
32324;BME280;25666;44.350;9.222;2023-05-01T12:44:26;101155.88;;;21.20;100.00
32324;BME280;25666;44.350;9.222;2023-05-01T12:47:02;101156.03;;;21.58;100.00
32324;BME280;25666;44.350;9.222;2023-05-01T12:49:29;101154.47;;;21.50;100.00
32324;BME280;25666;44.350;9.222;2023-05-01T12:51:59;101158.44;;;21.59;100.00
32324;BME280;25666;44.350;9.222;2023-05-01T12:54:29;101156.47;;;21.49;100.00
32324;BME280;25666;44.350;9.222;2023-05-01T12:57:07;101153.66;;;21.49;100.00
32324;BME280;25666;44.350;9.222;2023-05-01T12:59:34;101158.81;;;21.65;100.00
32324;BME280;25666;44.350;9.222;2023-05-01T13:02:02;101154.88;;;21.52;100.00
32324;BME280;25666;44.350;9.222;2023-05-01T13:04:29;101152.16;;;21.27;100.00
32324;BME280;25666;44.350;9.222;2023-05-01T13:07:00;101152.91;;;21.42;100.00
32324;BME280;25666;44.350;9.222;2023-05-01T13:09:35;101147.31;;;21.27;100.00
32324;BME280;25666;44.350;9.222;2023-05-01T13:12:02;101150.41;;;21.51;100.00
32324;BME280;25666;44.350;9.222;2023-05-01T13:14:39;101140.91;;;21.20;100.00
32324;BME280;25666;44.350;9.222;2023-05-01T13:17:09;101136.47;;;21.15;100.00
32324;BME280;25666;44.350;9.222;2023-05-01T13:19:36;101143.75;;;21.16;100.00